Choudrant, Louisiana
Current Conditions -  °F | °C
As of 10:15 PM on Wednesday 26 Nov 2014 (Local Time) from KRSN Reporting Station
Clear Clear  
Wind Chill: 52°   Ceiling: Unl
Heat Index: 52°   Visibility: 10mi
Dew Point: 34°   Wind: 3mph
Humidity: 50%   Direction: 320°NW
Pressure: 30.3"   Gusts: NA
Location:  32.53°N, 92.51°W
Report Text: KRSN 270415Z AUTO 32003KT 10SM CLR 11/01 A3030 RMK AO2 T01120012
Loading
Personal Weather Stations






























Interactive Weather Map New forecast layout! Learn more

10-Day Weather Forecast

Advertisements
Track Severe Weather on mobile